Time;durP1;ratioP1;P1;durP2;ratioP2;P2;SDS_P1;SDS_P2;PMS_P1;PMS_P2;Temp;Humidity;BMP_temperature;BMP_pressure;BME280_temperature;BME280_humidity;BME280_pressure;Samples;Min_cycle;Max_cycle;Signal;HPM_P1;HPM_P2
2022/10/09 00:01:30;;;;;;;14.13;7.20;;;9.40;99.90;;;;;;5082371;28;20883;-54
2022/10/09 00:03:57;;;;;;;17.00;7.30;;;9.40;99.90;;;;;;5090119;28;20484;-54
2022/10/09 00:06:28;;;;;;;13.63;7.25;;;9.50;99.90;;;;;;5088858;28;20481;-54
2022/10/09 00:08:55;;;;;;;16.83;7.60;;;9.50;99.90;;;;;;5092517;28;20894;-55
2022/10/09 00:11:26;;;;;;;17.15;8.27;;;9.40;99.90;;;;;;5090371;28;20443;-55
2022/10/09 00:13:52;;;;;;;14.88;7.95;;;9.40;99.90;;;;;;5092845;28;20394;-56
2022/10/09 00:16:20;;;;;;;16.73;8.98;;;9.20;99.90;;;;;;5093216;28;20853;-55
2022/10/09 00:18:46;;;;;;;13.35;7.95;;;9.20;99.90;;;;;;5093121;28;20927;-54
2022/10/09 00:21:21;;;;;;;14.80;7.88;;;9.30;99.90;;;;;;5092659;28;20397;-54
2022/10/09 00:23:48;;;;;;;14.33;7.30;;;9.20;99.90;;;;;;5087420;28;20471;-56
2022/10/09 00:26:15;;;;;;;11.80;7.05;;;9.20;99.90;;;;;;5092556;28;20421;-54
2022/10/09 00:28:41;;;;;;;13.98;7.70;;;9.30;99.90;;;;;;5093259;28;20389;-55
2022/10/09 00:31:08;;;;;;;14.60;7.78;;;9.20;99.90;;;;;;5092040;28;20440;-54
2022/10/09 00:33:35;;;;;;;13.18;7.32;;;9.20;99.90;;;;;;5093075;28;20390;-54
2022/10/09 00:36:05;;;;;;;12.02;7.15;;;9.10;99.90;;;;;;5090899;28;20398;-55
2022/10/09 00:38:31;;;;;;;14.25;8.50;;;9.10;99.90;;;;;;5092490;28;20521;-54
2022/10/09 00:40:57;;;;;;;15.43;7.65;;;9.20;99.90;;;;;;5091705;28;20425;-54
2022/10/09 00:43:37;;;;;;;14.60;9.00;;;9.30;99.90;;;;;;5092105;28;20531;-54
2022/10/09 00:46:03;;;;;;;14.95;8.75;;;9.30;99.90;;;;;;5091422;28;20394;-54
2022/10/09 00:48:29;;;;;;;13.20;7.93;;;9.30;99.90;;;;;;5092256;28;20436;-54
2022/10/09 00:50:58;;;;;;;15.07;7.80;;;9.30;99.90;;;;;;5091140;28;20428;-55
2022/10/09 00:53:28;;;;;;;14.37;8.20;;;9.40;99.90;;;;;;5092350;28;20394;-55
2022/10/09 00:55:54;;;;;;;17.50;7.95;;;9.40;99.90;;;;;;5091433;28;20420;-54
2022/10/09 00:58:22;;;;;;;13.85;7.35;;;9.40;99.90;;;;;;5091969;28;20489;-55
2022/10/09 01:00:48;;;;;;;16.45;7.85;;;9.30;99.90;;;;;;5091488;28;20462;-56
2022/10/09 01:03:13;;;;;;;13.30;7.78;;;9.20;99.90;;;;;;5091902;28;20397;-55
2022/10/09 01:06:01;;;;;;;14.00;7.30;;;9.20;99.90;;;;;;5090208;28;20390;-54
2022/10/09 01:08:40;;;;;;;13.13;7.10;;;9.00;99.90;;;;;;5091111;28;20393;-54
2022/10/09 01:11:25;;;;;;;14.07;7.37;;;8.90;99.90;;;;;;5053094;28;20422;-53
2022/10/09 01:14:03;;;;;;;12.77;6.70;;;9.20;99.90;;;;;;5088767;28;20481;-55
2022/10/09 01:16:34;;;;;;;15.18;6.78;;;8.60;99.90;;;;;;5091503;28;20386;-53
2022/10/09 01:19:11;;;;;;;13.32;6.60;;;8.60;99.90;;;;;;5091014;28;20449;-53
2022/10/09 01:21:40;;;;;;;10.77;6.50;;;8.50;99.90;;;;;;5091780;28;20409;-53
2022/10/09 01:24:36;;;;;;;14.05;6.65;;;8.40;99.90;;;;;;5091120;28;20410;-53
2022/10/09 01:27:04;;;;;;;13.85;7.25;;;8.40;99.90;;;;;;5091237;28;20374;-53
2022/10/09 01:29:37;;;;;;;13.25;6.63;;;8.40;99.90;;;;;;5091490;28;20438;-53
2022/10/09 01:32:04;;;;;;;12.63;6.53;;;8.50;99.90;;;;;;5090792;28;20398;-53
2022/10/09 01:34:31;;;;;;;14.80;7.65;;;8.50;99.90;;;;;;5091467;28;20866;-54
2022/10/09 01:36:57;;;;;;;15.00;7.50;;;8.40;99.90;;;;;;5072041;28;20386;-53
2022/10/09 01:39:25;;;;;;;12.90;6.93;;;8.40;99.90;;;;;;5091127;28;20494;-53
2022/10/09 01:41:53;;;;;;;13.98;7.00;;;8.40;99.90;;;;;;5090891;28;20401;-55
2022/10/09 01:44:25;;;;;;;12.70;6.55;;;8.40;99.90;;;;;;5097635;28;20460;-53
2022/10/09 01:46:51;;;;;;;11.73;6.80;;;8.20;99.90;;;;;;5088125;28;20438;-55
2022/10/09 01:49:51;;;;;;;13.30;6.90;;;8.20;99.90;;;;;;5090855;28;20390;-53
2022/10/09 01:52:25;;;;;;;10.80;5.93;;;8.20;99.90;;;;;;5090969;28;20584;-53
2022/10/09 01:55:05;;;;;;;12.70;6.10;;;8.20;99.90;;;;;;5090743;28;20867;-55
2022/10/09 01:57:59;;;;;;;13.38;6.80;;;8.10;99.90;;;;;;5091106;28;20375;-53
2022/10/09 02:00:25;;;;;;;11.93;6.20;;;8.10;99.90;;;;;;5091059;28;20378;-53
2022/10/09 02:02:53;;;;;;;12.70;5.90;;;8.10;99.90;;;;;;5090936;28;20393;-55
2022/10/09 02:05:23;;;;;;;13.20;6.90;;;8.00;99.90;;;;;;5090930;28;20757;-53
2022/10/09 02:07:49;;;;;;;15.25;7.40;;;8.00;99.90;;;;;;5090717;28;20433;-53
2022/10/09 02:10:17;;;;;;;13.93;7.47;;;9.70;99.90;;;;;;5089969;28;20449;-54
2022/10/09 02:12:48;;;;;;;11.52;5.95;;;8.20;99.90;;;;;;5090902;28;20401;-53
2022/10/09 02:15:15;;;;;;;10.75;5.93;;;8.40;99.90;;;;;;5089911;28;20390;-53
2022/10/09 02:17:44;;;;;;;12.30;6.10;;;8.40;99.90;;;;;;5090469;28;20463;-53
2022/10/09 02:20:31;;;;;;;12.60;6.20;;;8.30;99.90;;;;;;5089840;28;20426;-53
2022/10/09 02:23:01;;;;;;;13.45;6.55;;;8.30;99.90;;;;;;5089876;28;20390;-53
2022/10/09 02:25:27;;;;;;;13.30;6.00;;;8.20;99.90;;;;;;5090546;28;20425;-53
2022/10/09 02:27:53;;;;;;;23.90;7.60;;;9.10;99.90;;;;;;5090204;28;20409;-55
2022/10/09 02:30:20;;;;;;;12.53;6.17;;;8.20;99.90;;;;;;5090355;28;20402;-55
2022/10/09 02:32:51;;;;;;;13.13;6.10;;;8.10;99.90;;;;;;5090776;28;20410;-53
2022/10/09 02:35:16;;;;;;;12.98;6.20;;;7.90;99.90;;;;;;5090142;28;20386;-53
2022/10/09 02:37:42;;;;;;;12.13;6.00;;;7.90;99.90;;;;;;5089716;28;20751;-53
2022/10/09 02:40:08;;;;;;;11.82;6.38;;;8.20;99.90;;;;;;5089909;28;20396;-53
2022/10/09 02:42:34;;;;;;;12.10;5.60;;;7.90;99.90;;;;;;5090237;28;20394;-53
2022/10/09 02:44:59;;;;;;;12.80;6.13;;;7.90;99.90;;;;;;5075154;28;20411;-53
2022/10/09 02:47:25;;;;;;;12.33;5.80;;;7.80;99.90;;;;;;5090226;28;20393;-53
2022/10/09 02:49:50;;;;;;;11.95;6.00;;;9.10;99.90;;;;;;5089445;28;20488;-55
2022/10/09 02:52:16;;;;;;;11.67;5.80;;;9.10;99.90;;;;;;5089626;28;20390;-53
2022/10/09 02:54:41;;;;;;;12.87;5.80;;;7.60;99.90;;;;;;5090222;28;20414;-53
2022/10/09 02:57:07;;;;;;;10.07;5.50;;;7.50;99.90;;;;;;5089389;28;20851;-53
2022/10/09 02:59:32;;;;;;;13.40;5.90;;;9.60;99.90;;;;;;5087914;28;20402;-54
2022/10/09 03:01:58;;;;;;;13.77;6.22;;;8.00;99.90;;;;;;5086698;28;20398;-53
2022/10/09 03:04:24;;;;;;;12.30;6.10;;;7.60;99.90;;;;;;5089693;28;20394;-53
2022/10/09 03:06:49;;;;;;;12.43;6.22;;;7.40;99.90;;;;;;5086539;28;20753;-53
2022/10/09 03:09:15;;;;;;;12.97;5.17;;;7.40;99.90;;;;;;5077940;28;20801;-53
2022/10/09 03:11:40;;;;;;;10.55;5.50;;;9.30;99.90;;;;;;5089348;28;20413;-53
2022/10/09 03:14:07;;;;;;;13.10;5.50;;;7.30;99.90;;;;;;5089131;28;20447;-53
2022/10/09 03:16:33;;;;;;;9.90;5.20;;;7.30;99.90;;;;;;5089296;28;20386;-53
2022/10/09 03:18:59;;;;;;;9.90;5.50;;;7.20;99.90;;;;;;5088681;28;20471;-53
2022/10/09 03:21:26;;;;;;;10.82;5.10;;;7.20;99.90;;;;;;5089653;28;20396;-53
2022/10/09 03:23:52;;;;;;;11.32;5.40;;;8.40;99.90;;;;;;5085274;28;20865;-55
2022/10/09 03:26:20;;;;;;;11.93;5.20;;;8.20;99.90;;;;;;5089479;28;20425;-53
2022/10/09 03:28:47;;;;;;;10.80;5.50;;;8.30;99.90;;;;;;5089515;28;20409;-53
2022/10/09 03:31:15;;;;;;;11.40;5.10;;;7.20;99.90;;;;;;5088074;28;21013;-53
2022/10/09 03:33:41;;;;;;;12.85;5.38;;;8.50;99.90;;;;;;5089214;28;20394;-53
2022/10/09 03:36:07;;;;;;;11.52;5.00;;;8.70;99.90;;;;;;5088452;28;20724;-53
2022/10/09 03:38:33;;;;;;;10.25;5.35;;;8.50;99.90;;;;;;5088767;28;20445;-53
2022/10/09 03:40:59;;;;;;;10.73;4.80;;;7.10;99.90;;;;;;5088435;28;20433;-53
2022/10/09 03:43:25;;;;;;;11.85;5.15;;;7.10;99.90;;;;;;5089314;28;20672;-53
2022/10/09 03:45:51;;;;;;;9.70;4.60;;;7.20;99.90;;;;;;5089043;28;20473;-55
2022/10/09 03:48:17;;;;;;;9.97;5.03;;;7.10;99.90;;;;;;5088929;28;20437;-53
2022/10/09 03:50:42;;;;;;;9.77;5.10;;;7.10;99.90;;;;;;5089193;28;20409;-53
2022/10/09 03:53:10;;;;;;;11.23;4.63;;;7.00;99.90;;;;;;5088576;28;20393;-53
2022/10/09 03:55:36;;;;;;;12.50;4.93;;;7.00;99.90;;;;;;5089406;28;20409;-53
2022/10/09 03:58:01;;;;;;;11.38;5.15;;;7.00;99.90;;;;;;5088368;28;20903;-53
2022/10/09 04:00:27;;;;;;;13.00;5.13;;;6.90;99.90;;;;;;5089159;28;20401;-53
2022/10/09 04:02:53;;;;;;;11.57;5.03;;;6.90;99.90;;;;;;5088859;28;20462;-55
2022/10/09 04:05:19;;;;;;;10.63;5.03;;;7.70;99.90;;;;;;5088757;28;20906;-53
2022/10/09 04:07:44;;;;;;;10.52;4.90;;;6.80;99.90;;;;;;5088385;28;20476;-53
2022/10/09 04:10:10;;;;;;;11.80;5.60;;;8.80;99.90;;;;;;5088228;28;20548;-53
2022/10/09 04:12:36;;;;;;;15.83;5.10;;;8.10;99.90;;;;;;5089020;28;20432;-53
2022/10/09 04:15:02;;;;;;;11.02;5.47;;;7.90;99.90;;;;;;5088415;28;20875;-53
2022/10/09 04:17:28;;;;;;;10.57;5.47;;;7.70;99.90;;;;;;5088875;28;20397;-53
2022/10/09 04:19:53;;;;;;;10.18;5.10;;;8.40;99.90;;;;;;5088449;28;20394;-55
2022/10/09 04:22:19;;;;;;;11.17;5.90;;;6.70;99.90;;;;;;5088726;28;20386;-53
2022/10/09 04:24:45;;;;;;;11.30;6.07;;;6.60;99.90;;;;;;5089069;28;20744;-53
2022/10/09 04:27:10;;;;;;;12.30;5.60;;;7.30;99.90;;;;;;5088213;28;20386;-53
2022/10/09 04:29:36;;;;;;;13.77;5.90;;;6.60;99.90;;;;;;5088761;28;20397;-53
2022/10/09 04:32:01;;;;;;;12.75;5.40;;;6.60;99.90;;;;;;5087516;28;20549;-53
2022/10/09 04:34:27;;;;;;;12.67;5.40;;;6.50;99.90;;;;;;5089048;28;20394;-53
2022/10/09 04:36:53;;;;;;;12.63;5.60;;;6.50;99.90;;;;;;5088285;28;20386;-55
2022/10/09 04:39:18;;;;;;;12.87;5.70;;;6.40;99.90;;;;;;5087744;28;20414;-53
2022/10/09 04:41:44;;;;;;;12.00;4.90;;;6.30;99.90;;;;;;5088458;28;20394;-54
2022/10/09 04:44:09;;;;;;;12.77;5.47;;;6.30;99.90;;;;;;5090554;28;20394;-53
2022/10/09 04:46:35;;;;;;;12.90;5.70;;;7.50;99.90;;;;;;5092034;28;20392;-53
2022/10/09 04:49:01;;;;;;;10.60;5.20;;;8.00;99.90;;;;;;5091686;28;20393;-53
2022/10/09 04:51:26;;;;;;;13.85;5.40;;;6.50;99.90;;;;;;5091818;28;20393;-53
2022/10/09 04:53:54;;;;;;;10.50;5.00;;;6.40;99.90;;;;;;5092170;28;20382;-53
2022/10/09 04:56:22;;;;;;;11.35;5.45;;;6.20;99.90;;;;;;5092172;28;20390;-53
2022/10/09 04:58:49;;;;;;;13.23;5.70;;;6.30;99.90;;;;;;5091886;28;20485;-53
2022/10/09 05:01:20;;;;;;;10.98;5.40;;;7.40;99.90;;;;;;5091461;28;20466;-53
2022/10/09 05:03:46;;;;;;;9.95;4.80;;;6.30;99.90;;;;;;5092046;28;20479;-53
2022/10/09 05:06:13;;;;;;;11.50;5.30;;;6.80;99.90;;;;;;5091141;28;20402;-53
2022/10/09 05:08:41;;;;;;;11.90;5.90;;;6.30;99.90;;;;;;5091112;28;20389;-53
2022/10/09 05:11:21;;;;;;;11.88;5.57;;;6.20;99.90;;;;;;5086641;28;20397;-53
2022/10/09 05:13:50;;;;;;;13.45;5.75;;;6.30;99.90;;;;;;5092303;28;20405;-53
2022/10/09 05:16:18;;;;;;;12.33;5.30;;;6.30;99.90;;;;;;5091006;28;20459;-53
2022/10/09 05:18:47;;;;;;;12.52;5.10;;;6.20;99.90;;;;;;5091614;28;20416;-53
2022/10/09 05:21:13;;;;;;;11.65;5.47;;;7.80;99.90;;;;;;5088139;28;20404;-53
2022/10/09 05:23:39;;;;;;;10.60;5.25;;;6.90;99.90;;;;;;5079033;28;20485;-53
2022/10/09 05:26:07;;;;;;;9.32;4.70;;;8.10;99.90;;;;;;5091256;28;20849;-53
2022/10/09 05:28:34;;;;;;;10.70;4.97;;;6.00;99.90;;;;;;5091386;28;20412;-53
2022/10/09 05:31:02;;;;;;;10.52;5.10;;;6.00;99.90;;;;;;5086886;28;20454;-53
2022/10/09 05:33:28;;;;;;;11.00;5.40;;;7.50;99.90;;;;;;5091252;28;20394;-54
2022/10/09 05:35:56;;;;;;;11.65;5.20;;;7.10;99.90;;;;;;5083997;28;20401;-54
2022/10/09 05:38:23;;;;;;;18.13;5.75;;;5.90;99.90;;;;;;5091217;28;20458;-53
2022/10/09 05:40:57;;;;;;;9.98;5.10;;;5.80;99.90;;;;;;5091065;28;20394;-53
2022/10/09 05:43:28;;;;;;;9.75;5.00;;;5.80;99.90;;;;;;5088315;28;20429;-53
2022/10/09 05:45:54;;;;;;;10.00;5.13;;;7.50;99.90;;;;;;5075310;28;20391;-54
2022/10/09 05:48:20;;;;;;;9.35;4.70;;;5.60;99.90;;;;;;5090314;28;20471;-53
2022/10/09 05:50:46;;;;;;;10.45;4.95;;;5.60;99.90;;;;;;5090820;28;20504;-53
2022/10/09 05:53:12;;;;;;;10.05;4.60;;;5.70;99.90;;;;;;5090380;28;20847;-53
2022/10/09 05:55:38;;;;;;;9.50;4.60;;;5.70;99.90;;;;;;5071182;28;20749;-54
2022/10/09 05:58:03;;;;;;;9.27;5.07;;;5.70;99.90;;;;;;5084025;28;20505;-53
2022/10/09 06:00:29;;;;;;;9.27;5.10;;;5.70;99.90;;;;;;5091087;28;20382;-53
2022/10/09 06:02:54;;;;;;;10.10;5.10;;;5.70;99.90;;;;;;5091040;28;20417;-55
2022/10/09 06:05:20;;;;;;;9.73;4.97;;;5.70;99.90;;;;;;5083694;28;20437;-53
2022/10/09 06:07:46;;;;;;;8.40;5.00;;;7.70;99.90;;;;;;5091878;28;20863;-53
2022/10/09 06:10:12;;;;;;;9.57;5.00;;;6.30;99.90;;;;;;5089779;28;20378;-54
2022/10/09 06:12:38;;;;;;;8.68;5.05;;;8.50;99.90;;;;;;5091272;28;20424;-54
2022/10/09 06:15:04;;;;;;;8.35;4.28;;;7.20;99.90;;;;;;5090162;28;20465;-54
2022/10/09 06:17:31;;;;;;;7.65;4.00;;;7.70;99.90;;;;;;5091078;28;20378;-54
2022/10/09 06:19:57;;;;;;;7.10;3.50;;;9.10;99.90;;;;;;5090292;28;20393;-56
2022/10/09 06:22:22;;;;;;;7.17;3.40;;;8.80;15.70;;;;;;5090777;28;20451;-54
2022/10/09 06:24:48;;;;;;;7.37;3.20;;;9.20;1.00;;;;;;5090692;28;20473;-54
2022/10/09 06:27:14;;;;;;;7.32;3.30;;;9.50;99.90;;;;;;5083341;28;20488;-54
2022/10/09 06:29:39;;;;;;;8.50;3.30;;;9.90;99.90;;;;;;5089875;28;20402;-55
2022/10/09 06:32:05;;;;;;;8.07;3.17;;;10.60;1.00;;;;;;5085063;28;20415;-54
2022/10/09 06:34:30;;;;;;;7.03;3.23;;;11.20;99.90;;;;;;5091090;28;20891;-54
2022/10/09 06:36:56;;;;;;;7.00;3.20;;;;;;;;;;5085628;28;20477;-56
2022/10/09 06:39:22;;;;;;;7.03;3.47;;;12.40;99.90;;;;;;5085711;28;20417;-54
2022/10/09 06:41:48;;;;;;;8.60;3.70;;;12.60;99.90;;;;;;5089254;28;20451;-55
2022/10/09 06:44:15;;;;;;;7.40;3.50;;;12.80;78.40;;;;;;5086737;28;20423;-55
2022/10/09 06:46:42;;;;;;;7.30;3.58;;;13.20;5.80;;;;;;5089694;28;20713;-54
2022/10/09 06:49:09;;;;;;;7.53;3.70;;;13.70;1.00;;;;;;5067107;28;20734;-55
2022/10/09 06:51:36;;;;;;;8.40;3.97;;;14.30;1.00;;;;;;5081023;28;21015;-55
2022/10/09 06:54:07;;;;;;;8.23;4.10;;;14.20;1.00;;;;;;5090200;28;20391;-55
2022/10/09 06:56:33;;;;;;;7.85;3.80;;;14.90;1.00;;;;;;5091210;28;20532;-55
2022/10/09 06:59:03;;;;;;;7.50;3.60;;;14.90;1.00;;;;;;5081025;28;20894;-56
2022/10/09 07:01:30;;;;;;;7.50;3.85;;;15.60;1.00;;;;;;5078383;28;20872;-54
2022/10/09 07:04:09;;;;;;;8.45;4.05;;;15.60;1.00;;;;;;5078258;28;20394;-56
2022/10/09 07:06:40;;;;;;;8.98;4.05;;;15.80;1.00;;;;;;5082165;28;20871;-55
2022/10/09 07:09:09;;;;;;;7.47;3.60;;;16.40;1.00;;;;;;5078082;28;20396;-55
2022/10/09 07:11:38;;;;;;;8.30;3.70;;;16.20;1.00;;;;;;5084972;28;20442;-55
2022/10/09 07:14:05;;;;;;;8.30;4.20;;;;;;;;;;5082080;28;20428;-55
2022/10/09 07:16:33;;;;;;;8.23;4.10;;;17.40;1.00;;;;;;5080883;28;20390;-55
2022/10/09 07:19:00;;;;;;;8.80;4.50;;;18.10;99.90;;;;;;5082997;28;20968;-57
2022/10/09 07:21:26;;;;;;;12.50;4.97;;;18.30;99.90;;;;;;5096011;28;20397;-55
2022/10/09 07:23:52;;;;;;;8.50;4.68;;;18.40;99.90;;;;;;5082612;28;20425;-56
2022/10/09 07:26:24;;;;;;;8.77;4.10;;;18.80;99.90;;;;;;5088483;28;20483;-56
2022/10/09 07:28:51;;;;;;;10.45;4.47;;;19.20;99.90;;;;;;5077286;28;20474;-56
2022/10/09 07:31:16;;;;;;;9.40;4.97;;;19.50;99.90;;;;;;5078340;28;20563;-56
2022/10/09 07:33:42;;;;;;;9.20;4.93;;;20.10;99.90;;;;;;5073671;28;20997;-56
2022/10/09 07:36:09;;;;;;;10.83;4.90;;;20.20;99.90;;;;;;5081861;28;20485;-56
2022/10/09 07:38:35;;;;;;;8.70;4.50;;;20.10;99.90;;;;;;5076301;28;20403;-56
2022/10/09 07:41:06;;;;;;;10.35;7.50;;;20.90;99.90;;;;;;5075655;28;20404;-57
2022/10/09 07:43:38;;;;;;;9.23;6.90;;;21.90;99.90;;;;;;5079335;28;20437;-56
2022/10/09 07:46:05;;;;;;;13.80;10.65;;;22.30;99.90;;;;;;5074221;28;20441;-57
2022/10/09 07:48:32;;;;;;;8.88;3.95;;;22.40;99.90;;;;;;5081378;28;20890;-57
2022/10/09 07:51:06;;;;;;;8.75;4.07;;;22.50;99.90;;;;;;5070218;28;20376;-57
2022/10/09 07:53:32;;;;;;;9.00;4.25;;;23.60;99.90;;;;;;5079552;28;20494;-57
2022/10/09 07:55:58;;;;;;;14.43;13.13;;;24.60;99.90;;;;;;5076278;28;20484;-57
2022/10/09 07:58:24;;;;;;;14.13;12.73;;;24.10;99.90;;;;;;5076276;28;20421;-56
2022/10/09 08:00:49;;;;;;;9.98;6.30;;;23.90;99.90;;;;;;5088839;28;20398;-56
2022/10/09 08:03:15;;;;;;;9.13;5.35;;;24.50;99.90;;;;;;5096212;28;20893;-56
2022/10/09 08:05:40;;;;;;;10.27;5.90;;;24.50;99.90;;;;;;5075925;28;20404;-55
2022/10/09 08:08:06;;;;;;;9.13;5.43;;;23.80;99.90;;;;;;5074862;28;20395;-56
2022/10/09 08:10:32;;;;;;;11.70;6.53;;;23.30;99.90;;;;;;5076587;28;20376;-55
2022/10/09 08:12:58;;;;;;;10.45;6.55;;;23.80;99.90;;;;;;5079903;28;20460;-57
2022/10/09 08:15:24;;;;;;;10.80;6.80;;;23.50;99.90;;;;;;5074486;28;20426;-56
2022/10/09 08:17:53;;;;;;;9.20;7.20;;;23.80;99.90;;;;;;5082434;28;20463;-56
2022/10/09 08:20:19;;;;;;;9.10;6.70;;;25.40;99.90;;;;;;5090696;28;20404;-56
2022/10/09 08:22:45;;;;;;;11.80;7.13;;;25.80;99.90;;;;;;5080511;28;20399;-56
2022/10/09 08:25:10;;;;;;;10.90;6.33;;;26.60;99.90;;;;;;5082337;28;20404;-55
2022/10/09 08:27:36;;;;;;;8.80;5.80;;;26.20;99.90;;;;;;5085715;28;20443;-57
2022/10/09 08:30:02;;;;;;;8.48;6.00;;;25.90;99.90;;;;;;5077733;28;20411;-56
2022/10/09 08:32:28;;;;;;;12.13;6.18;;;25.40;99.90;;;;;;5078055;28;20429;-57
2022/10/09 08:34:53;;;;;;;11.50;6.50;;;25.40;99.90;;;;;;5082022;28;20405;-56
2022/10/09 08:37:19;;;;;;;11.90;8.20;;;25.30;99.90;;;;;;5080849;28;21025;-56
2022/10/09 08:39:45;;;;;;;9.70;6.37;;;25.60;99.90;;;;;;5078406;28;20417;-57
2022/10/09 08:42:27;;;;;;;10.97;6.77;;;25.60;99.90;;;;;;5080993;28;20799;-56
2022/10/09 08:44:53;;;;;;;9.95;6.72;;;25.90;99.90;;;;;;5077090;28;20456;-56
2022/10/09 08:47:43;;;;;;;9.40;7.05;;;26.50;99.90;;;;;;5076778;28;20931;-55
2022/10/09 08:50:21;;;;;;;10.20;7.72;;;26.20;99.90;;;;;;5075464;28;20501;-56
2022/10/09 08:53:12;;;;;;;8.68;5.90;;;26.40;99.90;;;;;;5086668;28;20382;-55
2022/10/09 08:55:52;;;;;;;10.70;7.38;;;26.60;99.90;;;;;;5089437;28;20885;-59
2022/10/09 08:58:20;;;;;;;10.50;4.80;;;26.90;99.90;;;;;;5082864;28;20539;-59
2022/10/09 09:00:50;;;;;;;9.38;6.70;;;27.30;99.90;;;;;;5087308;28;20440;-59
2022/10/09 09:03:40;;;;;;;8.85;4.85;;;27.80;99.90;;;;;;5086000;28;21227;-59
2022/10/09 09:06:26;;;;;;;11.13;3.90;;;27.60;99.90;;;;;;5078830;28;20494;-59
2022/10/09 09:09:05;;;;;;;7.88;3.40;;;27.70;99.90;;;;;;5087170;28;20394;-59
2022/10/09 09:11:45;;;;;;;9.50;3.38;;;27.80;99.90;;;;;;5085252;28;20477;-59
2022/10/09 09:14:27;;;;;;;6.97;3.00;;;27.40;99.90;;;;;;5084617;28;20893;-58
2022/10/09 09:17:11;;;;;;;8.05;3.00;;;26.80;99.90;;;;;;5092192;28;20473;-60
2022/10/09 09:19:52;;;;;;;9.02;3.20;;;27.20;99.90;;;;;;5087754;28;20906;-59
2022/10/09 09:22:18;;;;;;;9.65;3.50;;;27.40;99.90;;;;;;5090193;28;20449;-59
2022/10/09 09:24:51;;;;;;;7.40;2.80;;;27.40;99.90;;;;;;5096483;28;20404;-58
2022/10/09 09:27:20;;;;;;;8.02;3.00;;;26.80;99.90;;;;;;5092915;28;20936;-59
2022/10/09 09:30:02;;;;;;;9.20;3.63;;;26.30;99.90;;;;;;5089921;28;20395;-58
2022/10/09 09:32:29;;;;;;;9.70;2.90;;;26.50;99.90;;;;;;5107429;28;20439;-59
2022/10/09 09:35:24;;;;;;;8.18;3.00;;;26.40;99.90;;;;;;5094208;28;20409;-59
2022/10/09 09:37:49;;;;;;;8.52;3.30;;;26.20;99.90;;;;;;5105970;28;20377;-58
2022/10/09 09:40:16;;;;;;;9.20;3.00;;;25.80;99.90;;;;;;5077045;28;20914;-59
2022/10/09 09:42:42;;;;;;;8.82;3.00;;;26.50;99.90;;;;;;5094365;28;20403;-60
2022/10/09 09:45:23;;;;;;;9.02;2.97;;;27.30;99.90;;;;;;5088154;28;20414;-59
2022/10/09 09:47:54;;;;;;;7.83;3.30;;;26.30;99.90;;;;;;5093986;28;20816;-59
2022/10/09 09:50:39;;;;;;;7.40;2.90;;;25.70;99.90;;;;;;5084068;28;20480;-59
2022/10/09 09:53:12;;;;;;;8.25;3.35;;;26.40;99.90;;;;;;5088620;28;20402;-58
2022/10/09 09:55:38;;;;;;;8.63;3.00;;;27.10;99.90;;;;;;5074405;28;20405;-59
2022/10/09 09:58:13;;;;;;;7.45;2.70;;;27.20;99.90;;;;;;5079318;28;20410;-59
2022/10/09 10:00:39;;;;;;;9.05;2.70;;;27.40;99.90;;;;;;5080227;28;20400;-59
2022/10/09 10:03:15;;;;;;;8.30;2.90;;;27.70;99.90;;;;;;5066560;28;20914;-59
2022/10/09 10:05:42;;;;;;;8.02;2.40;;;27.30;99.90;;;;;;5082426;28;20402;-59
2022/10/09 10:08:24;;;;;;;6.28;2.53;;;27.10;99.90;;;;;;5084410;28;20743;-58
2022/10/09 10:10:52;;;;;;;8.90;2.60;;;27.10;99.90;;;;;;5088486;28;20885;-59
2022/10/09 10:13:37;;;;;;;7.72;2.95;;;27.60;99.90;;;;;;5064059;28;20410;-59
2022/10/09 10:16:05;;;;;;;7.70;2.30;;;27.90;99.90;;;;;;5082886;28;20394;-58
2022/10/09 10:18:37;;;;;;;8.15;2.30;;;28.20;99.90;;;;;;5087193;28;20497;-60
2022/10/09 10:21:14;;;;;;;6.32;2.45;;;28.60;99.90;;;;;;5085518;28;20761;-59
2022/10/09 10:23:57;;;;;;;10.20;2.80;;;28.50;99.90;;;;;;5084187;28;20398;-58
2022/10/09 10:26:29;;;;;;;6.20;2.70;;;28.30;99.90;;;;;;5084138;28;20387;-58
2022/10/09 10:29:30;;;;;;;7.15;2.22;;;28.40;99.90;;;;;;5082960;28;20867;-58
2022/10/09 10:32:03;;;;;;;7.70;2.40;;;27.80;99.90;;;;;;5079539;28;20407;-59
2022/10/09 10:34:35;;;;;;;7.95;3.00;;;27.90;99.90;;;;;;5083330;28;20441;-59
2022/10/09 10:37:13;;;;;;;8.27;2.28;;;28.50;99.90;;;;;;5082193;28;20392;-59
2022/10/09 10:39:56;;;;;;;7.60;1.90;;;28.80;99.90;;;;;;5082891;28;20450;-59
2022/10/09 10:42:25;;;;;;;6.50;1.57;;;29.00;99.90;;;;;;5080131;28;20404;-58
2022/10/09 10:45:03;;;;;;;6.75;1.70;;;29.10;99.90;;;;;;5083453;28;20411;-58
2022/10/09 10:47:33;;;;;;;8.30;2.10;;;28.50;99.90;;;;;;5076372;28;21149;-58
2022/10/09 10:50:00;;;;;;;6.50;2.30;;;26.80;99.90;;;;;;5071731;28;20408;-61
2022/10/09 10:52:28;;;;;;;6.03;1.85;;;26.70;99.90;;;;;;5067026;28;20459;-58
2022/10/09 10:55:28;;;;;;;7.50;2.00;;;27.00;99.90;;;;;;5082781;28;20407;-58
2022/10/09 10:58:16;;;;;;;9.10;6.68;;;26.50;99.90;;;;;;5080875;28;20419;-58
2022/10/09 11:00:52;;;;;;;7.35;4.72;;;26.00;99.90;;;;;;5087141;28;20881;-58
2022/10/09 11:03:21;;;;;;;7.88;5.50;;;25.30;99.90;;;;;;5081405;28;21205;-59
2022/10/09 11:06:05;;;;;;;9.30;5.70;;;25.60;99.90;;;;;;5074262;28;20387;-59
2022/10/09 11:08:57;;;;;;;7.47;5.63;;;25.20;99.90;;;;;;5074954;28;20768;-58
2022/10/09 11:11:52;;;;;;;7.70;5.10;;;25.20;99.90;;;;;;5076803;28;20895;-58
2022/10/09 11:14:37;;;;;;;7.80;5.10;;;24.80;99.90;;;;;;5078375;28;20404;-58
2022/10/09 11:17:25;;;;;;;8.30;5.63;;;24.20;99.90;;;;;;5089130;28;20417;-58
2022/10/09 11:19:53;;;;;;;8.10;5.30;;;23.50;99.90;;;;;;5086852;28;20901;-57
2022/10/09 11:22:32;;;;;;;7.45;5.30;;;22.90;99.90;;;;;;5080444;28;20461;-58
2022/10/09 11:25:03;;;;;;;7.53;5.10;;;22.00;99.90;;;;;;5074109;28;20455;-59
2022/10/09 11:27:37;;;;;;;7.10;5.00;;;21.20;99.90;;;;;;5070836;28;20422;-57
2022/10/09 11:30:08;;;;;;;7.80;4.70;;;20.90;99.90;;;;;;5089916;28;20490;-57
2022/10/09 11:32:42;;;;;;;8.35;4.65;;;21.10;99.90;;;;;;5079796;28;20436;-57
2022/10/09 11:35:11;;;;;;;7.70;4.72;;;21.10;99.90;;;;;;5072352;28;20491;-57
2022/10/09 11:37:39;;;;;;;7.37;4.60;;;20.80;99.90;;;;;;5070893;28;20423;-57
2022/10/09 11:40:14;;;;;;;7.15;4.25;;;20.50;99.90;;;;;;5083089;28;20393;-57
2022/10/09 11:42:41;;;;;;;7.78;4.32;;;19.90;99.90;;;;;;5073040;28;20403;-57
2022/10/09 11:45:28;;;;;;;7.10;4.30;;;20.00;99.90;;;;;;5086964;28;20878;-57
2022/10/09 11:48:06;;;;;;;9.10;4.67;;;20.50;99.90;;;;;;5088582;28;20406;-57
2022/10/09 11:50:47;;;;;;;6.13;4.35;;;20.70;99.90;;;;;;5084695;28;20479;-57
2022/10/09 11:53:19;;;;;;;8.38;4.60;;;20.60;99.90;;;;;;5076309;28;20405;-56
2022/10/09 11:55:47;;;;;;;6.88;3.90;;;20.20;99.90;;;;;;5085899;28;20374;-57
2022/10/09 11:58:18;;;;;;;7.90;4.20;;;20.30;99.90;;;;;;5081579;28;20498;-57
2022/10/09 12:00:46;;;;;;;7.90;4.00;;;20.20;99.90;;;;;;5084359;28;20427;-57
2022/10/09 12:03:32;;;;;;;7.70;4.00;;;20.10;99.90;;;;;;5069283;28;20893;-56
2022/10/09 12:06:08;;;;;;;7.80;4.00;;;20.10;99.90;;;;;;5090435;28;20499;-57
2022/10/09 12:08:36;;;;;;;6.18;3.63;;;20.10;99.90;;;;;;5082982;28;20402;-56
2022/10/09 12:11:17;;;;;;;7.03;3.40;;;20.20;99.90;;;;;;5081149;28;20395;-60
2022/10/09 12:14:05;;;;;;;6.60;3.70;;;20.10;99.90;;;;;;5083167;28;20384;-58
2022/10/09 12:16:40;;;;;;;7.07;3.78;;;20.20;99.90;;;;;;5085349;28;20488;-57
2022/10/09 12:19:14;;;;;;;7.10;4.28;;;20.50;99.90;;;;;;5080677;28;20400;-57
2022/10/09 12:22:11;;;;;;;7.27;3.60;;;20.80;99.90;;;;;;5084066;28;20400;-57
2022/10/09 12:24:42;;;;;;;7.00;3.40;;;20.80;99.90;;;;;;5060946;28;20924;-57
2022/10/09 12:27:24;;;;;;;7.78;3.67;;;20.40;99.90;;;;;;5079313;28;20769;-57
2022/10/09 12:29:54;;;;;;;6.53;3.15;;;20.30;99.90;;;;;;5061552;28;20979;-57
2022/10/09 12:32:35;;;;;;;6.20;3.20;;;20.40;99.90;;;;;;5081884;28;20408;-57
2022/10/09 12:35:12;;;;;;;6.13;3.47;;;20.20;99.90;;;;;;5081169;28;20395;-59
2022/10/09 12:37:37;;;;;;;6.20;3.50;;;19.70;99.90;;;;;;5087327;28;20410;-57
2022/10/09 12:40:15;;;;;;;7.97;3.80;;;19.80;99.90;;;;;;5069098;28;20922;-58
2022/10/09 12:42:43;;;;;;;5.90;3.25;;;19.90;99.90;;;;;;5077201;28;20440;-57
2022/10/09 12:45:29;;;;;;;8.05;3.65;;;20.20;99.90;;;;;;5087752;28;20406;-57
2022/10/09 12:47:58;;;;;;;5.60;3.30;;;20.10;99.90;;;;;;5083587;28;20382;-57
2022/10/09 12:50:26;;;;;;;5.70;3.20;;;20.40;99.90;;;;;;5087734;28;20398;-57
2022/10/09 12:52:56;;;;;;;6.10;3.30;;;20.40;99.90;;;;;;5089411;28;20392;-57
2022/10/09 12:55:32;;;;;;;7.72;3.50;;;20.50;99.90;;;;;;5079905;28;20399;-57
2022/10/09 12:58:07;;;;;;;6.40;3.30;;;20.70;99.90;;;;;;5082199;28;20495;-58
2022/10/09 13:00:34;;;;;;;6.30;3.70;;;20.70;99.90;;;;;;5084898;28;20399;-57
2022/10/09 13:03:00;;;;;;;7.43;3.80;;;20.30;99.90;;;;;;5062972;28;21188;-60
2022/10/09 13:05:40;;;;;;;6.85;3.35;;;20.10;99.90;;;;;;5080467;28;20410;-56